This is the latest recevied weather packets stored in our database for station/object HK4LRM-13. If no packets are shown the sender has not sent any weather packets the latest 10 day(s).
| Time | Temp. | Humidity | Pressure | Rain* | Wind** | Luminosity | Snow |
|---|---|---|---|---|---|---|---|
| 1777665906 | 25° C | 63% | 1008 hPa | 0 mm | - | - | - |
| 1777665364 | 25° C | 66% | 1008 hPa | 0 mm | - | - | - |
| 1777664821 | 25° C | 64% | 1008 hPa | 0 mm | - | - | - |
| 1777664281 | 25° C | 62% | 1008 hPa | 0 mm | - | - | - |
| 1777663740 | 25° C | 62% | 1008 hPa | 0 mm | - | - | - |
| 1777663198 | 25° C | 61% | 1008 hPa | 0 mm | - | - | - |
| 1777662657 | 25.56° C | 60% | 1008 hPa | 0 mm | - | - | - |
| 1777662116 | 25.56° C | 58% | 1008 hPa | 0 mm | - | - | - |
| 1777661575 | 25.56° C | 55% | 1008 hPa | 0 mm | - | - | - |
| 1777661035 | 25.56° C | 55% | 1008 hPa | 0 mm | - | - | - |
| 1777660494 | 25.56° C | 50% | 1008 hPa | 0 mm | - | - | - |
| 1777659954 | 25.56° C | 51% | 1009 hPa | 0 mm | - | - | - |
| 1777659412 | 25.56° C | 52% | 1009 hPa | 0 mm | - | - | - |
| 1777658871 | 25.56° C | 53% | 1009 hPa | 0 mm | - | - | - |
| 1777658328 | 25.56° C | 54% | 1009 hPa | 0 mm | - | - | - |
| 1777657788 | 25.56° C | 54% | 1009 hPa | 0 mm | - | - | - |
| 1777657247 | 26.11° C | 54% | 1009 hPa | 0 mm | - | - | - |
| 1777656706 | 25° C | 57% | 1010 hPa | 0 mm | - | - | - |
| 1777656165 | 25° C | 57% | 1010 hPa | 0 mm | - | - | - |
| 1777655624 | 25.56° C | 57% | 1010 hPa | 0 mm | - | - | - |
| 1777655083 | 26.11° C | 57% | 1010 hPa | 0 mm | - | - | - |
| 1777654541 | 26.11° C | 57% | 1010 hPa | 0 mm | - | - | - |
| 1777654000 | 26.11° C | 58% | 1011 hPa | 0 mm | - | - | - |
| 1777653457 | 24.44° C | 66% | 1011 hPa | 0 mm | - | - | - |
| 1777652917 | 23.89° C | 69% | 1012 hPa | 0 mm | - | - | - |
* Rain latest hour (hover to see other rain measurements)
** Current wind speed in m/s (hover to see current wind gust speed)